sensor_id;sensor_type;location;lat;lon;timestamp;pressure;altitude;pressure_sealevel;temperature;humidity
6204;BME280;3135;42.602;23.468;2024-01-07T00:00:19;150878.19;;;6.01;100.00
6204;BME280;3135;42.602;23.468;2024-01-07T00:02:44;150893.66;;;6.07;100.00
6204;BME280;3135;42.602;23.468;2024-01-07T00:05:10;150883.38;;;6.03;100.00
6204;BME280;3135;42.602;23.468;2024-01-07T00:07:35;150906.63;;;6.12;100.00
6204;BME280;3135;42.602;23.468;2024-01-07T00:10:00;150907.91;;;6.12;100.00
6204;BME280;3135;42.602;23.468;2024-01-07T00:12:26;150913.06;;;6.14;100.00
6204;BME280;3135;42.602;23.468;2024-01-07T00:14:51;150910.50;;;6.13;100.00
6204;BME280;3135;42.602;23.468;2024-01-07T00:17:17;150820.03;;;5.78;100.00
6204;BME280;3135;42.602;23.468;2024-01-07T00:19:42;150843.28;;;5.87;100.00
6204;BME280;3135;42.602;23.468;2024-01-07T00:22:08;150856.22;;;5.92;100.00
6204;BME280;3135;42.602;23.468;2024-01-07T00:24:33;150849.75;;;5.89;100.00
6204;BME280;3135;42.602;23.468;2024-01-07T00:26:58;150818.75;;;5.77;100.00
6204;BME280;3135;42.602;23.468;2024-01-07T00:29:24;150826.50;;;5.80;100.00
6204;BME280;3135;42.602;23.468;2024-01-07T00:31:50;150840.69;;;5.86;100.00
6204;BME280;3135;42.602;23.468;2024-01-07T00:34:15;150823.94;;;5.79;100.00
6204;BME280;3135;42.602;23.468;2024-01-07T00:36:40;150853.59;;;5.91;100.00
6204;BME280;3135;42.602;23.468;2024-01-07T00:39:06;150847.19;;;5.88;100.00
6204;BME280;3135;42.602;23.468;2024-01-07T00:41:31;150871.75;;;5.98;100.00
6204;BME280;3135;42.602;23.468;2024-01-07T00:43:57;150801.97;;;5.71;100.00
6204;BME280;3135;42.602;23.468;2024-01-07T00:46:22;150857.50;;;5.93;100.00
6204;BME280;3135;42.602;23.468;2024-01-07T00:48:48;150785.16;;;5.64;100.00
6204;BME280;3135;42.602;23.468;2024-01-07T00:51:13;150822.66;;;5.79;100.00
6204;BME280;3135;42.602;23.468;2024-01-07T00:53:39;150838.13;;;5.85;100.00
6204;BME280;3135;42.602;23.468;2024-01-07T00:56:05;150789.06;;;5.66;100.00
6204;BME280;3135;42.602;23.468;2024-01-07T00:58:30;150685.78;;;5.25;100.00
6204;BME280;3135;42.602;23.468;2024-01-07T01:00:56;150755.50;;;5.52;100.00
6204;BME280;3135;42.602;23.468;2024-01-07T01:03:21;150761.91;;;5.55;100.00
6204;BME280;3135;42.602;23.468;2024-01-07T01:05:46;150840.69;;;5.86;100.00
6204;BME280;3135;42.602;23.468;2024-01-07T01:08:12;150847.19;;;5.88;100.00
6204;BME280;3135;42.602;23.468;2024-01-07T01:10:37;150864.00;;;5.95;100.00
6204;BME280;3135;42.602;23.468;2024-01-07T01:13:03;150874.34;;;5.99;100.00
6204;BME280;3135;42.602;23.468;2024-01-07T01:15:29;150873.03;;;5.99;100.00
6204;BME280;3135;42.602;23.468;2024-01-07T01:17:54;150841.97;;;5.86;100.00
6204;BME280;3135;42.602;23.468;2024-01-07T01:20:20;150897.59;;;6.08;100.00
6204;BME280;3135;42.602;23.468;2024-01-07T01:22:45;150845.84;;;5.88;100.00
6204;BME280;3135;42.602;23.468;2024-01-07T01:25:10;150814.88;;;5.76;100.00
6204;BME280;3135;42.602;23.468;2024-01-07T01:27:36;150822.66;;;5.79;100.00
6204;BME280;3135;42.602;23.468;2024-01-07T01:30:02;150768.41;;;5.57;100.00
6204;BME280;3135;42.602;23.468;2024-01-07T01:32:28;150767.09;;;5.57;100.00
6204;BME280;3135;42.602;23.468;2024-01-07T01:34:53;150714.16;;;5.36;100.00
6204;BME280;3135;42.602;23.468;2024-01-07T01:37:18;150764.53;;;5.56;100.00
6204;BME280;3135;42.602;23.468;2024-01-07T01:39:44;150751.63;;;5.51;100.00
6204;BME280;3135;42.602;23.468;2024-01-07T01:42:09;150816.16;;;5.76;100.00
6204;BME280;3135;42.602;23.468;2024-01-07T01:44:35;150838.13;;;5.85;100.00
6204;BME280;3135;42.602;23.468;2024-01-07T01:47:00;150826.50;;;5.80;100.00
6204;BME280;3135;42.602;23.468;2024-01-07T01:49:27;150883.38;;;6.03;100.00
6204;BME280;3135;42.602;23.468;2024-01-07T01:51:53;150905.28;;;6.11;100.00
6204;BME280;3135;42.602;23.468;2024-01-07T01:54:19;150910.50;;;6.13;100.00
6204;BME280;3135;42.602;23.468;2024-01-07T01:56:46;150925.97;;;6.20;100.00
6204;BME280;3135;42.602;23.468;2024-01-07T01:59:14;150911.78;;;6.14;100.00
6204;BME280;3135;42.602;23.468;2024-01-07T02:01:40;150882.09;;;6.02;100.00
6204;BME280;3135;42.602;23.468;2024-01-07T02:04:05;150892.38;;;6.06;100.00
6204;BME280;3135;42.602;23.468;2024-01-07T02:06:31;150882.09;;;6.02;100.00
6204;BME280;3135;42.602;23.468;2024-01-07T02:08:57;150856.22;;;5.92;100.00
6204;BME280;3135;42.602;23.468;2024-01-07T02:11:23;150783.88;;;5.63;100.00
6204;BME280;3135;42.602;23.468;2024-01-07T02:13:48;150861.41;;;5.94;100.00
6204;BME280;3135;42.602;23.468;2024-01-07T02:16:14;150901.44;;;6.10;100.00
6204;BME280;3135;42.602;23.468;2024-01-07T02:18:44;150925.97;;;6.20;100.00
6204;BME280;3135;42.602;23.468;2024-01-07T02:21:12;150931.16;;;6.22;100.00
6204;BME280;3135;42.602;23.468;2024-01-07T02:23:38;150922.13;;;6.18;100.00
6204;BME280;3135;42.602;23.468;2024-01-07T02:26:03;150951.81;;;6.30;100.00
6204;BME280;3135;42.602;23.468;2024-01-07T02:28:38;150942.81;;;6.26;100.00
6204;BME280;3135;42.602;23.468;2024-01-07T02:31:03;150990.59;;;6.45;100.00
6204;BME280;3135;42.602;23.468;2024-01-07T02:33:29;150994.47;;;6.47;100.00
6204;BME280;3135;42.602;23.468;2024-01-07T02:35:56;151026.78;;;6.59;100.00
6204;BME280;3135;42.602;23.468;2024-01-07T02:38:21;150959.56;;;6.33;100.00
6204;BME280;3135;42.602;23.468;2024-01-07T02:40:47;150987.97;;;6.44;100.00
6204;BME280;3135;42.602;23.468;2024-01-07T02:43:12;150922.13;;;6.18;100.00
6204;BME280;3135;42.602;23.468;2024-01-07T02:45:37;150893.66;;;6.07;100.00
6204;BME280;3135;42.602;23.468;2024-01-07T02:48:03;150895.00;;;6.07;100.00
6204;BME280;3135;42.602;23.468;2024-01-07T02:50:29;150907.91;;;6.12;100.00
6204;BME280;3135;42.602;23.468;2024-01-07T02:52:54;150882.09;;;6.02;100.00
6204;BME280;3135;42.602;23.468;2024-01-07T02:55:20;150906.63;;;6.12;100.00
6204;BME280;3135;42.602;23.468;2024-01-07T02:57:45;150941.50;;;6.26;100.00
6204;BME280;3135;42.602;23.468;2024-01-07T03:00:11;151000.88;;;6.49;100.00
6204;BME280;3135;42.602;23.468;2024-01-07T03:02:36;151025.47;;;6.59;100.00
6204;BME280;3135;42.602;23.468;2024-01-07T03:05:02;151042.25;;;6.65;100.00
6204;BME280;3135;42.602;23.468;2024-01-07T03:07:27;151050.03;;;6.69;100.00
6204;BME280;3135;42.602;23.468;2024-01-07T03:09:53;151057.75;;;6.72;100.00
6204;BME280;3135;42.602;23.468;2024-01-07T03:12:18;151029.34;;;6.60;100.00
6204;BME280;3135;42.602;23.468;2024-01-07T03:14:44;151060.31;;;6.73;100.00
6204;BME280;3135;42.602;23.468;2024-01-07T03:17:10;151073.28;;;6.78;100.00
6204;BME280;3135;42.602;23.468;2024-01-07T03:19:37;151028.06;;;6.60;100.00
6204;BME280;3135;42.602;23.468;2024-01-07T03:22:03;151047.41;;;6.68;100.00
6204;BME280;3135;42.602;23.468;2024-01-07T03:24:28;151059.03;;;6.72;100.00
6204;BME280;3135;42.602;23.468;2024-01-07T03:26:54;151052.59;;;6.70;100.00
6204;BME280;3135;42.602;23.468;2024-01-07T03:29:19;151075.88;;;6.79;100.00
6204;BME280;3135;42.602;23.468;2024-01-07T03:31:44;151078.44;;;6.80;100.00
6204;BME280;3135;42.602;23.468;2024-01-07T03:34:10;151088.78;;;6.84;100.00
6204;BME280;3135;42.602;23.468;2024-01-07T03:36:35;151121.09;;;6.97;100.00
6204;BME280;3135;42.602;23.468;2024-01-07T03:39:01;151101.72;;;6.89;100.00
6204;BME280;3135;42.602;23.468;2024-01-07T03:41:26;151071.97;;;6.77;100.00
6204;BME280;3135;42.602;23.468;2024-01-07T03:43:52;151077.16;;;6.79;100.00
6204;BME280;3135;42.602;23.468;2024-01-07T03:46:18;151095.22;;;6.86;100.00
6204;BME280;3135;42.602;23.468;2024-01-07T03:48:44;151047.41;;;6.68;100.00
6204;BME280;3135;42.602;23.468;2024-01-07T03:51:10;151056.47;;;6.71;100.00
6204;BME280;3135;42.602;23.468;2024-01-07T03:53:35;151062.94;;;6.74;100.00
6204;BME280;3135;42.602;23.468;2024-01-07T03:56:01;151055.19;;;6.71;100.00
6204;BME280;3135;42.602;23.468;2024-01-07T03:58:26;151071.97;;;6.77;100.00
6204;BME280;3135;42.602;23.468;2024-01-07T04:00:51;151057.75;;;6.72;100.00
6204;BME280;3135;42.602;23.468;2024-01-07T04:03:17;151034.50;;;6.62;100.00
6204;BME280;3135;42.602;23.468;2024-01-07T04:05:42;150977.69;;;6.40;100.00
6204;BME280;3135;42.602;23.468;2024-01-07T04:08:10;150985.41;;;6.43;100.00
6204;BME280;3135;42.602;23.468;2024-01-07T04:10:36;150986.69;;;6.44;100.00
6204;BME280;3135;42.602;23.468;2024-01-07T04:13:02;150987.97;;;6.44;100.00
6204;BME280;3135;42.602;23.468;2024-01-07T04:15:27;150976.34;;;6.39;100.00
6204;BME280;3135;42.602;23.468;2024-01-07T04:17:53;150940.19;;;6.25;100.00
6204;BME280;3135;42.602;23.468;2024-01-07T04:20:18;150972.50;;;6.38;100.00
6204;BME280;3135;42.602;23.468;2024-01-07T04:22:43;150998.31;;;6.48;100.00
6204;BME280;3135;42.602;23.468;2024-01-07T04:25:09;150966.06;;;6.35;100.00
6204;BME280;3135;42.602;23.468;2024-01-07T04:27:36;150998.31;;;6.48;100.00
6204;BME280;3135;42.602;23.468;2024-01-07T04:30:02;151016.44;;;6.55;100.00
6204;BME280;3135;42.602;23.468;2024-01-07T04:32:28;151012.50;;;6.54;100.00
6204;BME280;3135;42.602;23.468;2024-01-07T04:34:53;150969.91;;;6.37;100.00
6204;BME280;3135;42.602;23.468;2024-01-07T04:37:19;150946.66;;;6.28;100.00
6204;BME280;3135;42.602;23.468;2024-01-07T04:39:44;150913.06;;;6.14;100.00
6204;BME280;3135;42.602;23.468;2024-01-07T04:42:10;150925.97;;;6.20;100.00
6204;BME280;3135;42.602;23.468;2024-01-07T04:44:35;150889.81;;;6.05;100.00
6204;BME280;3135;42.602;23.468;2024-01-07T04:47:01;150941.50;;;6.26;100.00
6204;BME280;3135;42.602;23.468;2024-01-07T04:49:26;150949.22;;;6.29;100.00
6204;BME280;3135;42.602;23.468;2024-01-07T04:51:51;150918.25;;;6.17;100.00
6204;BME280;3135;42.602;23.468;2024-01-07T04:54:17;150936.31;;;6.24;100.00
6204;BME280;3135;42.602;23.468;2024-01-07T04:56:44;150957.00;;;6.32;100.00
6204;BME280;3135;42.602;23.468;2024-01-07T04:59:09;150928.53;;;6.21;100.00
6204;BME280;3135;42.602;23.468;2024-01-07T05:01:35;150955.72;;;6.31;100.00
6204;BME280;3135;42.602;23.468;2024-01-07T05:04:01;150990.59;;;6.45;100.00
6204;BME280;3135;42.602;23.468;2024-01-07T05:06:27;150966.06;;;6.35;100.00
6204;BME280;3135;42.602;23.468;2024-01-07T05:08:52;150994.47;;;6.47;100.00
6204;BME280;3135;42.602;23.468;2024-01-07T05:11:18;150883.38;;;6.03;100.00
6204;BME280;3135;42.602;23.468;2024-01-07T05:13:43;150910.50;;;6.13;100.00
6204;BME280;3135;42.602;23.468;2024-01-07T05:16:08;150911.78;;;6.14;100.00
6204;BME280;3135;42.602;23.468;2024-01-07T05:18:34;150866.56;;;5.96;100.00
6204;BME280;3135;42.602;23.468;2024-01-07T05:20:59;150856.22;;;5.92;100.00
6204;BME280;3135;42.602;23.468;2024-01-07T05:23:24;150858.84;;;5.93;100.00
6204;BME280;3135;42.602;23.468;2024-01-07T05:25:50;150783.88;;;5.63;100.00
6204;BME280;3135;42.602;23.468;2024-01-07T05:28:15;150834.28;;;5.83;100.00
6204;BME280;3135;42.602;23.468;2024-01-07T05:30:45;150869.13;;;5.97;100.00
6204;BME280;3135;42.602;23.468;2024-01-07T05:33:10;150874.34;;;5.99;100.00
6204;BME280;3135;42.602;23.468;2024-01-07T05:35:35;150812.31;;;5.75;100.00
6204;BME280;3135;42.602;23.468;2024-01-07T05:38:01;150874.34;;;5.99;100.00
6204;BME280;3135;42.602;23.468;2024-01-07T05:40:26;150862.72;;;5.95;100.00
6204;BME280;3135;42.602;23.468;2024-01-07T05:42:52;150862.72;;;5.95;100.00
6204;BME280;3135;42.602;23.468;2024-01-07T05:45:17;150791.63;;;5.67;100.00
6204;BME280;3135;42.602;23.468;2024-01-07T05:47:43;150840.69;;;5.86;100.00
6204;BME280;3135;42.602;23.468;2024-01-07T05:50:08;150804.53;;;5.72;100.00
6204;BME280;3135;42.602;23.468;2024-01-07T05:52:34;150808.41;;;5.73;100.00
6204;BME280;3135;42.602;23.468;2024-01-07T05:54:59;150803.25;;;5.71;100.00
6204;BME280;3135;42.602;23.468;2024-01-07T05:57:25;150812.31;;;5.75;100.00
6204;BME280;3135;42.602;23.468;2024-01-07T05:59:51;150847.19;;;5.88;100.00
6204;BME280;3135;42.602;23.468;2024-01-07T06:02:17;150857.50;;;5.93;100.00
6204;BME280;3135;42.602;23.468;2024-01-07T06:04:43;150814.88;;;5.76;100.00
6204;BME280;3135;42.602;23.468;2024-01-07T06:07:08;150848.47;;;5.89;100.00
6204;BME280;3135;42.602;23.468;2024-01-07T06:09:34;150816.16;;;5.76;100.00
6204;BME280;3135;42.602;23.468;2024-01-07T06:11:59;150817.44;;;5.77;100.00
6204;BME280;3135;42.602;23.468;2024-01-07T06:14:25;150849.75;;;5.89;100.00
6204;BME280;3135;42.602;23.468;2024-01-07T06:16:50;150796.78;;;5.69;100.00
6204;BME280;3135;42.602;23.468;2024-01-07T06:19:19;150836.84;;;5.84;100.00
6204;BME280;3135;42.602;23.468;2024-01-07T06:21:45;150840.69;;;5.86;100.00
6204;BME280;3135;42.602;23.468;2024-01-07T06:24:11;150845.84;;;5.88;100.00
6204;BME280;3135;42.602;23.468;2024-01-07T06:26:37;150840.69;;;5.86;100.00
6204;BME280;3135;42.602;23.468;2024-01-07T06:29:02;150860.13;;;5.94;100.00
6204;BME280;3135;42.602;23.468;2024-01-07T06:31:28;150883.38;;;6.03;100.00
6204;BME280;3135;42.602;23.468;2024-01-07T06:33:53;150847.19;;;5.88;100.00
6204;BME280;3135;42.602;23.468;2024-01-07T06:36:21;150875.63;;;6.00;100.00
6204;BME280;3135;42.602;23.468;2024-01-07T06:38:47;150862.72;;;5.95;100.00
6204;BME280;3135;42.602;23.468;2024-01-07T06:41:13;150889.81;;;6.05;100.00
6204;BME280;3135;42.602;23.468;2024-01-07T06:43:39;150843.28;;;5.87;100.00
6204;BME280;3135;42.602;23.468;2024-01-07T06:46:04;150892.38;;;6.06;100.00
6204;BME280;3135;42.602;23.468;2024-01-07T06:48:30;150873.03;;;5.99;100.00
6204;BME280;3135;42.602;23.468;2024-01-07T06:50:55;150933.75;;;6.23;100.00
6204;BME280;3135;42.602;23.468;2024-01-07T06:53:21;150919.53;;;6.17;100.00
6204;BME280;3135;42.602;23.468;2024-01-07T06:55:47;150892.38;;;6.06;100.00
6204;BME280;3135;42.602;23.468;2024-01-07T06:58:12;150879.47;;;6.01;100.00
6204;BME280;3135;42.602;23.468;2024-01-07T07:00:37;150906.63;;;6.12;100.00
6204;BME280;3135;42.602;23.468;2024-01-07T07:03:03;150945.38;;;6.27;100.00
6204;BME280;3135;42.602;23.468;2024-01-07T07:05:30;150949.22;;;6.29;100.00
6204;BME280;3135;42.602;23.468;2024-01-07T07:07:56;150946.66;;;6.28;100.00
6204;BME280;3135;42.602;23.468;2024-01-07T07:10:21;150954.44;;;6.31;100.00
6204;BME280;3135;42.602;23.468;2024-01-07T07:12:47;150959.56;;;6.33;100.00
6204;BME280;3135;42.602;23.468;2024-01-07T07:15:12;150967.34;;;6.36;100.00
6204;BME280;3135;42.602;23.468;2024-01-07T07:17:38;150985.41;;;6.43;100.00
6204;BME280;3135;42.602;23.468;2024-01-07T07:20:05;151013.84;;;6.54;100.00
6204;BME280;3135;42.602;23.468;2024-01-07T07:22:30;151008.66;;;6.52;100.00
6204;BME280;3135;42.602;23.468;2024-01-07T07:24:56;151042.25;;;6.65;100.00
6204;BME280;3135;42.602;23.468;2024-01-07T07:27:21;151000.88;;;6.49;100.00
6204;BME280;3135;42.602;23.468;2024-01-07T07:29:47;151017.72;;;6.56;100.00
6204;BME280;3135;42.602;23.468;2024-01-07T07:32:12;150941.50;;;6.26;100.00
6204;BME280;3135;42.602;23.468;2024-01-07T07:34:38;151008.66;;;6.52;100.00
6204;BME280;3135;42.602;23.468;2024-01-07T07:37:03;150989.31;;;6.45;100.00
6204;BME280;3135;42.602;23.468;2024-01-07T07:39:29;150963.44;;;6.34;100.00
6204;BME280;3135;42.602;23.468;2024-01-07T07:41:55;150997.03;;;6.48;100.00
6204;BME280;3135;42.602;23.468;2024-01-07T07:44:20;151073.28;;;6.78;100.00
6204;BME280;3135;42.602;23.468;2024-01-07T07:46:46;151037.13;;;6.63;100.00
6204;BME280;3135;42.602;23.468;2024-01-07T07:49:11;151022.84;;;6.58;100.00
6204;BME280;3135;42.602;23.468;2024-01-07T07:51:36;151012.50;;;6.54;100.00
6204;BME280;3135;42.602;23.468;2024-01-07T07:54:02;151040.97;;;6.65;100.00
6204;BME280;3135;42.602;23.468;2024-01-07T07:56:28;151051.31;;;6.69;100.00
6204;BME280;3135;42.602;23.468;2024-01-07T07:58:54;151099.13;;;6.88;100.00
6204;BME280;3135;42.602;23.468;2024-01-07T08:01:19;151113.34;;;6.94;100.00
6204;BME280;3135;42.602;23.468;2024-01-07T08:03:45;151084.94;;;6.82;100.00
6204;BME280;3135;42.602;23.468;2024-01-07T08:06:10;151099.13;;;6.88;100.00
6204;BME280;3135;42.602;23.468;2024-01-07T08:08:36;151103.00;;;6.89;100.00
6204;BME280;3135;42.602;23.468;2024-01-07T08:11:01;151118.50;;;6.96;100.00
6204;BME280;3135;42.602;23.468;2024-01-07T08:13:27;151136.59;;;7.03;100.00
6204;BME280;3135;42.602;23.468;2024-01-07T08:15:52;151128.84;;;7.00;100.00
6204;BME280;3135;42.602;23.468;2024-01-07T08:18:18;151135.31;;;7.02;100.00
6204;BME280;3135;42.602;23.468;2024-01-07T08:20:43;151117.19;;;6.95;100.00
6204;BME280;3135;42.602;23.468;2024-01-07T08:23:08;151099.13;;;6.88;100.00
6204;BME280;3135;42.602;23.468;2024-01-07T08:25:35;151083.59;;;6.82;100.00
6204;BME280;3135;42.602;23.468;2024-01-07T08:28:00;151105.56;;;6.90;100.00
6204;BME280;3135;42.602;23.468;2024-01-07T08:30:26;151108.16;;;6.91;100.00
6204;BME280;3135;42.602;23.468;2024-01-07T08:32:51;151118.50;;;6.96;100.00
6204;BME280;3135;42.602;23.468;2024-01-07T08:35:17;151052.59;;;6.70;100.00
6204;BME280;3135;42.602;23.468;2024-01-07T08:37:42;151069.38;;;6.76;100.00
6204;BME280;3135;42.602;23.468;2024-01-07T08:40:08;151062.94;;;6.74;100.00
6204;BME280;3135;42.602;23.468;2024-01-07T08:42:35;151057.75;;;6.72;100.00
6204;BME280;3135;42.602;23.468;2024-01-07T08:45:01;151039.69;;;6.64;100.00
6204;BME280;3135;42.602;23.468;2024-01-07T08:47:26;151119.78;;;6.96;100.00
6204;BME280;3135;42.602;23.468;2024-01-07T08:49:51;151127.56;;;6.99;100.00
6204;BME280;3135;42.602;23.468;2024-01-07T08:52:19;151176.66;;;7.18;100.00
6204;BME280;3135;42.602;23.468;2024-01-07T08:54:44;151212.84;;;7.33;100.00
6204;BME280;3135;42.602;23.468;2024-01-07T08:57:10;151197.34;;;7.27;100.00
6204;BME280;3135;42.602;23.468;2024-01-07T08:59:36;151261.97;;;7.52;100.00
6204;BME280;3135;42.602;23.468;2024-01-07T09:02:01;151285.25;;;7.61;100.00
6204;BME280;3135;42.602;23.468;2024-01-07T09:04:27;151267.19;;;7.54;100.00
6204;BME280;3135;42.602;23.468;2024-01-07T09:06:53;151308.53;;;7.71;100.00
6204;BME280;3135;42.602;23.468;2024-01-07T09:09:18;151325.38;;;7.77;100.00
6204;BME280;3135;42.602;23.468;2024-01-07T09:11:44;151349.97;;;7.87;100.00
6204;BME280;3135;42.602;23.468;2024-01-07T09:14:09;151349.97;;;7.87;100.00
6204;BME280;3135;42.602;23.468;2024-01-07T09:16:34;151390.03;;;8.03;100.00
6204;BME280;3135;42.602;23.468;2024-01-07T09:19:00;151415.91;;;8.13;100.00
6204;BME280;3135;42.602;23.468;2024-01-07T09:21:25;151365.47;;;7.93;100.00
6204;BME280;3135;42.602;23.468;2024-01-07T09:23:51;151312.47;;;7.72;100.00
6204;BME280;3135;42.602;23.468;2024-01-07T09:26:17;151305.97;;;7.69;100.00
6204;BME280;3135;42.602;23.468;2024-01-07T09:28:42;151322.75;;;7.76;100.00
6204;BME280;3135;42.602;23.468;2024-01-07T09:31:08;151300.81;;;7.67;100.00
6204;BME280;3135;42.602;23.468;2024-01-07T09:33:34;151320.19;;;7.75;100.00
6204;BME280;3135;42.602;23.468;2024-01-07T09:35:59;151390.03;;;8.03;100.00
6204;BME280;3135;42.602;23.468;2024-01-07T09:38:24;151393.91;;;8.04;100.00
6204;BME280;3135;42.602;23.468;2024-01-07T09:40:51;151368.03;;;7.94;100.00
6204;BME280;3135;42.602;23.468;2024-01-07T09:43:19;151313.75;;;7.73;100.00
6204;BME280;3135;42.602;23.468;2024-01-07T09:45:46;151344.75;;;7.85;100.00
6204;BME280;3135;42.602;23.468;2024-01-07T09:48:12;151326.66;;;7.78;100.00
6204;BME280;3135;42.602;23.468;2024-01-07T09:50:38;151357.69;;;7.90;100.00
6204;BME280;3135;42.602;23.468;2024-01-07T09:53:03;151334.41;;;7.81;100.00
6204;BME280;3135;42.602;23.468;2024-01-07T09:56:05;151379.69;;;7.99;100.00
6204;BME280;3135;42.602;23.468;2024-01-07T09:58:32;151327.97;;;7.78;100.00
6204;BME280;3135;42.602;23.468;2024-01-07T10:00:58;151343.47;;;7.84;100.00
6204;BME280;3135;42.602;23.468;2024-01-07T10:03:24;151304.69;;;7.69;100.00
6204;BME280;3135;42.602;23.468;2024-01-07T10:05:50;151346.03;;;7.85;100.00
6204;BME280;3135;42.602;23.468;2024-01-07T10:08:15;151305.97;;;7.69;100.00
6204;BME280;3135;42.602;23.468;2024-01-07T10:10:41;151335.75;;;7.81;100.00
6204;BME280;3135;42.602;23.468;2024-01-07T10:13:07;151187.00;;;7.23;100.00
6204;BME280;3135;42.602;23.468;2024-01-07T10:15:34;151302.09;;;7.68;100.00
6204;BME280;3135;42.602;23.468;2024-01-07T10:18:06;151379.69;;;7.99;100.00
6204;BME280;3135;42.602;23.468;2024-01-07T10:20:33;151337.03;;;7.82;100.00
6204;BME280;3135;42.602;23.468;2024-01-07T10:23:02;151396.53;;;8.05;100.00
6204;BME280;3135;42.602;23.468;2024-01-07T10:25:31;151413.31;;;8.12;100.00
6204;BME280;3135;42.602;23.468;2024-01-07T10:28:01;151422.38;;;8.15;100.00
6204;BME280;3135;42.602;23.468;2024-01-07T10:30:28;151448.25;;;8.26;100.00
6204;BME280;3135;42.602;23.468;2024-01-07T10:32:58;151480.66;;;8.38;100.00
6204;BME280;3135;42.602;23.468;2024-01-07T10:35:28;151479.38;;;8.38;100.00
6204;BME280;3135;42.602;23.468;2024-01-07T10:37:54;151538.91;;;8.61;100.00
6204;BME280;3135;42.602;23.468;2024-01-07T10:40:20;151463.78;;;8.32;100.00
6204;BME280;3135;42.602;23.468;2024-01-07T10:42:46;151491.03;;;8.42;100.00
6204;BME280;3135;42.602;23.468;2024-01-07T10:45:12;151503.97;;;8.48;100.00
6204;BME280;3135;42.602;23.468;2024-01-07T10:47:39;151520.78;;;8.54;100.00
6204;BME280;3135;42.602;23.468;2024-01-07T10:50:08;151537.56;;;8.61;100.00
6204;BME280;3135;42.602;23.468;2024-01-07T10:52:36;151571.22;;;8.74;100.00
6204;BME280;3135;42.602;23.468;2024-01-07T10:55:10;151514.31;;;8.52;100.00
6204;BME280;3135;42.602;23.468;2024-01-07T10:57:44;151531.13;;;8.58;100.00
6204;BME280;3135;42.602;23.468;2024-01-07T11:00:14;151498.75;;;8.45;100.00
6204;BME280;3135;42.602;23.468;2024-01-07T11:03:07;151448.25;;;8.26;100.00
6204;BME280;3135;42.602;23.468;2024-01-07T11:05:52;151395.25;;;8.05;100.00
6204;BME280;3135;42.602;23.468;2024-01-07T11:11:16;151541.50;;;8.62;100.00
6204;BME280;3135;42.602;23.468;2024-01-07T11:13:43;151494.91;;;8.44;100.00
6204;BME280;3135;42.602;23.468;2024-01-07T11:16:10;151535.00;;;8.60;100.00
6204;BME280;3135;42.602;23.468;2024-01-07T11:18:50;151533.69;;;8.59;100.00
6204;BME280;3135;42.602;23.468;2024-01-07T11:21:23;151506.53;;;8.49;100.00
6204;BME280;3135;42.602;23.468;2024-01-07T11:23:50;151496.19;;;8.44;100.00
6204;BME280;3135;42.602;23.468;2024-01-07T11:26:17;151513.00;;;8.51;100.00
6204;BME280;3135;42.602;23.468;2024-01-07T11:28:49;151544.06;;;8.63;100.00
6204;BME280;3135;42.602;23.468;2024-01-07T11:31:17;151611.38;;;8.90;100.00
6204;BME280;3135;42.602;23.468;2024-01-07T11:33:44;151613.97;;;8.91;100.00
6204;BME280;3135;42.602;23.468;2024-01-07T11:36:12;151623.03;;;8.94;100.00
6204;BME280;3135;42.602;23.468;2024-01-07T11:38:40;151580.31;;;8.78;100.00
6204;BME280;3135;42.602;23.468;2024-01-07T11:41:06;151533.69;;;8.59;100.00
6204;BME280;3135;42.602;23.468;2024-01-07T11:43:33;151598.44;;;8.85;100.00
6204;BME280;3135;42.602;23.468;2024-01-07T11:46:01;151580.31;;;8.78;100.00
6204;BME280;3135;42.602;23.468;2024-01-07T11:48:26;151515.63;;;8.52;100.00
6204;BME280;3135;42.602;23.468;2024-01-07T11:50:52;151582.88;;;8.79;100.00
6204;BME280;3135;42.602;23.468;2024-01-07T11:53:18;151563.50;;;8.71;100.00
6204;BME280;3135;42.602;23.468;2024-01-07T11:55:44;151616.53;;;8.92;100.00
6204;BME280;3135;42.602;23.468;2024-01-07T11:58:10;151645.00;;;9.03;100.00
6204;BME280;3135;42.602;23.468;2024-01-07T12:00:36;151601.03;;;8.86;100.00
6204;BME280;3135;42.602;23.468;2024-01-07T12:03:02;151645.00;;;9.03;100.00
6204;BME280;3135;42.602;23.468;2024-01-07T12:05:29;151619.13;;;8.93;100.00
6204;BME280;3135;42.602;23.468;2024-01-07T12:07:54;151533.69;;;8.59;100.00
6204;BME280;3135;42.602;23.468;2024-01-07T12:10:20;151563.50;;;8.71;100.00
6204;BME280;3135;42.602;23.468;2024-01-07T12:12:47;151506.53;;;8.49;100.00
6204;BME280;3135;42.602;23.468;2024-01-07T12:15:12;151623.03;;;8.94;100.00
6204;BME280;3135;42.602;23.468;2024-01-07T12:17:41;151621.75;;;8.94;100.00
6204;BME280;3135;42.602;23.468;2024-01-07T12:20:07;151606.19;;;8.88;100.00
6204;BME280;3135;42.602;23.468;2024-01-07T12:22:37;151654.06;;;9.07;100.00
6204;BME280;3135;42.602;23.468;2024-01-07T12:25:03;151648.94;;;9.05;100.00
6204;BME280;3135;42.602;23.468;2024-01-07T12:27:29;151659.28;;;9.09;100.00
6204;BME280;3135;42.602;23.468;2024-01-07T12:29:57;151694.25;;;9.23;100.00
6204;BME280;3135;42.602;23.468;2024-01-07T12:32:22;151722.72;;;9.34;100.00
6204;BME280;3135;42.602;23.468;2024-01-07T12:34:48;151699.41;;;9.25;100.00
6204;BME280;3135;42.602;23.468;2024-01-07T12:37:14;151691.63;;;9.21;100.00
6204;BME280;3135;42.602;23.468;2024-01-07T12:39:40;151656.66;;;9.08;100.00
6204;BME280;3135;42.602;23.468;2024-01-07T12:42:05;151629.50;;;8.97;100.00
6204;BME280;3135;42.602;23.468;2024-01-07T12:44:32;151702.00;;;9.26;100.00
6204;BME280;3135;42.602;23.468;2024-01-07T12:46:58;151733.09;;;9.38;100.00
6204;BME280;3135;42.602;23.468;2024-01-07T12:49:23;151630.78;;;8.98;100.00
6204;BME280;3135;42.602;23.468;2024-01-07T12:51:49;151683.88;;;9.18;100.00
6204;BME280;3135;42.602;23.468;2024-01-07T12:54:14;151731.78;;;9.37;100.00
6204;BME280;3135;42.602;23.468;2024-01-07T12:56:40;151724.00;;;9.34;100.00